Time;durP1;ratioP1;P1;durP2;ratioP2;P2;SDS_P1;SDS_P2;PMS_P1;PMS_P2;Temp;Humidity;BMP_temperature;BMP_pressure;BME280_temperature;BME280_humidity;BME280_pressure;Samples;Min_cycle;Max_cycle;Signal;HPM_P1;HPM_P2
2022/10/26 00:03:59;;;;;;;;;;;11.70;99.90;;;10.85;100.00;95824.25;10534102;28;1136;-73
2022/10/26 00:09:02;;;;;;;;;;;11.70;99.90;;;10.88;100.00;95816.44;10532866;28;971;-71
2022/10/26 00:14:04;;;;;;;;;;;11.80;99.90;;;10.85;100.00;95813.50;10533758;28;1902;-72
2022/10/26 00:19:07;;;;;;;;;;;11.70;99.90;;;10.87;100.00;95820.19;10533830;28;1117;-70
2022/10/26 00:24:10;;;;;;;;;;;11.70;99.90;;;10.86;100.00;95810.53;10533403;28;1664;-72
2022/10/26 00:29:17;;;;;;;;;;;11.70;99.90;;;10.90;100.00;95794.66;10526011;28;2193;-72
2022/10/26 00:34:19;;;;;;;;;;;11.70;99.90;;;10.90;100.00;95789.28;10534850;28;1910;-71
2022/10/26 00:39:22;;;;;;;;;;;11.80;99.90;;;10.89;100.00;95793.06;10530291;28;1669;-72
2022/10/26 00:44:26;;;;;;;;;;;11.80;99.90;;;10.98;100.00;95780.63;10532778;28;1636;-73
2022/10/26 00:49:28;;;;;;;;;;;11.80;99.90;;;11.04;100.00;95771.47;10534440;28;1179;-71
2022/10/26 00:54:31;;;;;;;;;;;11.90;99.90;;;10.92;100.00;95770.97;10529724;28;2104;-76
2022/10/26 00:59:34;;;;;;;;;;;11.90;99.90;;;10.97;100.00;95781.72;10517137;28;1532;-71
2022/10/26 01:04:36;;;;;;;;;;;11.80;99.90;;;10.95;100.00;95778.50;10533186;28;1110;-77
2022/10/26 01:09:39;;;;;;;;;;;11.90;99.90;;;10.98;100.00;95781.44;10518657;28;1644;-72
2022/10/26 01:14:42;;;;;;;;;;;11.90;99.90;;;11.15;100.00;95788.38;10530867;28;1906;-71
2022/10/26 01:19:46;;;;;;;;;;;11.90;99.90;;;11.19;100.00;95786.72;10541888;28;1161;-71
2022/10/26 01:24:49;;;;;;;;;;;11.90;99.90;;;11.17;100.00;95794.25;10534141;28;1659;-72
2022/10/26 01:29:52;;;;;;;;;;;11.90;99.90;;;11.22;100.00;95792.34;10532963;28;1498;-72
2022/10/26 01:34:55;;;;;;;;;;;12.00;99.90;;;11.11;100.00;95793.47;10536241;28;1969;-70
2022/10/26 01:39:58;;;;;;;;;;;12.00;99.90;;;11.10;100.00;95808.03;10526168;28;1628;-71
2022/10/26 01:45:00;;;;;;;;;;;12.00;99.90;;;11.13;100.00;95807.44;10530067;28;1561;-71
2022/10/26 01:50:03;;;;;;;;;;;12.00;99.90;;;11.21;100.00;95801.53;10538185;28;1141;-73
2022/10/26 01:55:06;;;;;;;;;;;12.00;99.90;;;11.11;100.00;95793.47;10536511;28;1968;-71
2022/10/26 02:00:09;;;;;;;;;;;12.00;99.90;;;11.01;100.00;95791.66;10533799;28;1521;-71
2022/10/26 02:05:12;;;;;;;;;;;12.00;99.90;;;10.95;100.00;95792.75;10542218;28;816;-72
2022/10/26 02:10:14;;;;;;;;;;;11.90;99.90;;;10.99;100.00;95795.69;10520786;28;1683;-71
2022/10/26 02:15:17;;;;;;;;;;;11.90;99.90;;;10.95;100.00;95797.34;10538883;28;1918;-70
2022/10/26 02:20:20;;;;;;;;;;;11.90;99.90;;;10.86;100.00;95807.03;10538146;28;1176;-71
2022/10/26 02:25:23;;;;;;;;;;;11.80;99.90;;;10.80;100.00;95827.75;10540714;28;1609;-70
2022/10/26 02:30:25;;;;;;;;;;;11.80;99.90;;;10.73;100.00;95811.09;10531641;28;1473;-70
2022/10/26 02:35:28;;;;;;;;;;;11.60;99.90;;;10.76;100.00;95806.00;10542248;28;1917;-73
2022/10/26 02:40:30;;;;;;;;;;;11.70;99.90;;;10.90;100.00;95805.41;10533421;28;1655;-70
2022/10/26 02:45:33;;;;;;;;;;;11.70;99.90;;;10.93;100.00;95818.28;10538080;28;1605;-72
2022/10/26 02:50:36;;;;;;;;;;;11.70;99.90;;;10.96;100.00;95817.75;10538256;28;1078;-71
2022/10/26 02:55:40;;;;;;;;;;;11.80;99.90;;;11.05;100.00;95810.72;10524435;28;1910;-73
2022/10/26 03:00:42;;;;;;;;;;;11.80;99.90;;;11.08;100.00;95802.91;10536583;28;1632;-73
2022/10/26 03:05:45;;;;;;;;;;;11.90;99.90;;;11.15;100.00;95786.47;10537716;28;994;-72
2022/10/26 03:10:48;;;;;;;;;;;12.00;99.90;;;11.24;100.00;95805.53;10529363;28;1701;-74
2022/10/26 03:15:50;;;;;;;;;;;12.10;99.90;;;11.23;100.00;95752.81;10536123;28;1902;-74
2022/10/26 03:20:53;;;;;;;;;;;12.00;99.90;;;11.09;100.00;95761.47;10553169;28;1669;-70
2022/10/26 03:25:55;;;;;;;;;;;12.00;99.90;;;11.01;100.00;95766.66;10528159;28;1636;-71
2022/10/26 03:30:58;;;;;;;;;;;12.00;99.90;;;10.99;100.00;95763.41;10529178;28;1605;-71
2022/10/26 03:36:01;;;;;;;;;;;12.00;99.90;;;11.02;100.00;95769.06;10537231;28;1918;-71
2022/10/26 03:41:04;;;;;;;;;;;11.90;99.90;;;11.14;100.00;95768.72;10527646;28;1651;-70
2022/10/26 03:46:06;;;;;;;;;;;12.00;99.90;;;11.04;100.00;95771.47;10535511;28;844;-71
2022/10/26 03:51:09;;;;;;;;;;;11.90;99.90;;;10.99;100.00;95771.47;10530216;28;1813;-70
2022/10/26 03:56:12;;;;;;;;;;;11.90;99.90;;;10.99;100.00;95776.84;10533592;28;1902;-70
2022/10/26 04:01:15;;;;;;;;;;;11.90;99.90;;;11.02;100.00;95782.50;10546017;28;1442;-70
2022/10/26 04:06:17;;;;;;;;;;;11.90;99.90;;;11.04;100.00;95787.59;10536202;28;1632;-71
2022/10/26 04:11:20;;;;;;;;;;;11.90;99.90;;;11.09;100.00;95780.31;10535580;28;1297;-70
2022/10/26 04:16:23;;;;;;;;;;;11.90;99.90;;;11.09;100.00;95788.38;10535189;28;1905;-71
2022/10/26 04:21:31;;;;;;;;;;;12.00;99.90;;;11.20;100.00;95796.41;10540938;28;1110;-71
2022/10/26 04:26:34;;;;;;;;;;;12.00;99.90;;;11.24;100.00;95805.53;10527388;28;1612;-70
2022/10/26 04:31:36;;;;;;;;;;;12.00;99.90;;;11.29;100.00;95800.13;10536958;28;1129;-70
2022/10/26 04:36:39;;;;;;;;;;;12.10;99.90;;;11.30;100.00;95799.84;10526248;28;1918;-71
2022/10/26 04:41:42;;;;;;;;;;;12.10;99.90;;;11.33;100.00;95802.00;10533750;28;1102;-75
2022/10/26 04:46:45;;;;;;;;;;;12.20;99.90;;;11.30;100.00;95812.50;10533577;28;1635;-75
2022/10/26 04:51:48;;;;;;;;;;;12.20;99.90;;;11.27;100.00;95838.09;10535374;28;1227;-73
2022/10/26 04:56:50;;;;;;;;;;;12.20;99.90;;;11.27;100.00;95858.81;10527150;28;1917;-73
2022/10/26 05:01:53;;;;;;;;;;;11.40;99.90;;;11.33;100.00;95880.03;10531112;28;1114;-71
2022/10/26 05:06:56;;;;;;;;;;;12.20;99.90;;;11.40;100.00;95900.47;10533164;28;1691;-71
2022/10/26 05:11:59;;;;;;;;;;;12.20;99.90;;;11.25;100.00;95931.72;10538203;28;1038;-70
2022/10/26 05:17:02;;;;;;;;;;;12.20;99.90;;;11.16;100.00;95937.94;10535261;28;1898;-70
2022/10/26 05:22:05;;;;;;;;;;;12.20;99.90;;;11.02;100.00;95926.94;10542818;28;1643;-69
2022/10/26 05:27:07;;;;;;;;;;;12.10;99.90;;;10.95;100.00;95927.22;10534614;28;1422;-70
2022/10/26 05:32:10;;;;;;;;;;;11.10;99.90;;;11.03;100.00;95932.06;10539523;28;1094;-70
2022/10/26 05:37:12;;;;;;;;;;;11.90;99.90;;;11.03;100.00;95947.38;10532515;28;1909;-75
2022/10/26 05:42:15;;;;;;;;;;;11.90;99.90;;;11.02;100.00;95968.09;10497953;28;1217;-70
2022/10/26 05:47:17;;;;;;;;;;;12.00;99.90;;;11.00;100.00;95972.13;10525635;28;1652;-71
2022/10/26 05:52:20;;;;;;;;;;;11.90;99.90;;;11.00;100.00;95969.44;10541739;28;1250;-71
2022/10/26 05:57:23;;;;;;;;;;;11.90;99.90;;;10.94;100.00;95978.59;10527837;28;1969;-72
2022/10/26 06:02:25;;;;;;;;;;;11.90;99.90;;;10.81;100.00;95970.03;10539300;28;1118;-70
2022/10/26 06:07:28;;;;;;;;;;;11.70;99.90;;;10.73;100.00;95997.41;10535727;28;1636;-71
2022/10/26 06:12:31;;;;;;;;;;;11.70;99.90;;;10.59;100.00;96004.41;10504599;28;1121;-71
2022/10/26 06:17:33;;;;;;;;;;;11.60;99.90;;;10.60;100.00;95989.09;10508562;28;1962;-71
2022/10/26 06:22:36;;;;;;;;;;;11.60;99.90;;;10.67;100.00;95985.06;10503692;28;1168;-70
2022/10/26 06:27:39;;;;;;;;;;;11.60;99.90;;;10.77;100.00;95985.06;10510237;28;1683;-71
2022/10/26 06:32:41;;;;;;;;;;;11.70;99.90;;;10.82;100.00;95997.72;10538119;28;1209;-71
2022/10/26 06:37:44;;;;;;;;;;;11.70;99.90;;;10.87;100.00;95999.56;10540147;28;1918;-72
2022/10/26 06:42:47;;;;;;;;;;;11.70;99.90;;;11.13;100.00;95985.00;10540795;28;1149;-77
2022/10/26 06:47:49;;;;;;;;;;;11.90;99.90;;;11.33;100.00;95994.97;10531548;28;1616;-73
2022/10/26 06:52:52;;;;;;;;;;;12.00;99.90;;;11.62;100.00;96000.53;10537488;28;1437;-72
2022/10/26 06:57:55;;;;;;;;;;;12.30;99.90;;;11.81;100.00;95996.16;10530073;28;1982;-72
2022/10/26 07:02:58;;;;;;;;;;;12.50;99.90;;;11.98;100.00;95986.94;10538271;28;1075;-71
2022/10/26 07:08:02;;;;;;;;;;;12.70;99.90;;;12.07;100.00;95990.66;10552185;28;1620;-71
2022/10/26 07:13:04;;;;;;;;;;;12.80;99.90;;;12.24;100.00;95996.50;10537611;28;1129;-71
2022/10/26 07:18:07;;;;;;;;;;;12.90;99.90;;;12.40;100.00;95992.63;10537353;28;1979;-70
2022/10/26 07:23:10;;;;;;;;;;;13.10;99.90;;;12.49;100.00;96005.53;10494979;28;1201;-72
2022/10/26 07:28:13;;;;;;;;;;;13.20;99.90;;;12.59;100.00;95994.66;10518885;28;1632;-72
2022/10/26 07:33:15;;;;;;;;;;;13.30;99.90;;;12.61;100.00;96006.00;10536209;28;1149;-73
2022/10/26 07:38:18;;;;;;;;;;;13.40;99.90;;;12.74;100.00;95997.25;10535738;28;1985;-72
2022/10/26 07:43:21;;;;;;;;;;;13.50;99.90;;;12.70;100.00;95999.69;10536228;28;1142;-71
2022/10/26 07:48:23;;;;;;;;;;;13.40;99.90;;;12.72;100.00;95996.72;10533130;28;1687;-72
2022/10/26 07:53:26;;;;;;;;;;;13.50;99.90;;;12.75;100.00;95984.56;10529531;28;1532;-71
2022/10/26 07:58:29;;;;;;;;;;;13.50;99.90;;;12.76;100.00;95973.50;10529297;28;1914;-71
2022/10/26 08:03:32;;;;;;;;;;;13.60;99.90;;;12.87;100.00;95966.94;10533227;28;1265;-70
2022/10/26 08:08:35;;;;;;;;;;;13.60;99.90;;;12.99;100.00;95969.25;10533360;28;1636;-70
2022/10/26 08:13:37;;;;;;;;;;;13.80;99.90;;;13.20;100.00;95969.88;10542691;28;1050;-72
2022/10/26 08:18:40;;;;;;;;;;;13.90;99.90;;;13.33;100.00;95985.44;10541553;28;1917;-70
2022/10/26 08:23:43;;;;;;;;;;;14.00;99.90;;;13.47;100.00;95980.94;10533441;28;1726;-71
2022/10/26 08:28:45;;;;;;;;;;;14.10;99.90;;;13.70;100.00;95984.75;10529021;28;1383;-73
2022/10/26 08:33:48;;;;;;;;;;;14.20;99.90;;;14.01;100.00;95989.78;10534089;28;1169;-72
2022/10/26 08:38:51;;;;;;;;;;;14.30;99.90;;;14.66;100.00;95962.13;10532588;28;1982;-71
2022/10/26 08:43:54;;;;;;;;;;;14.80;99.90;;;14.90;100.00;95964.72;10548703;28;1402;-71
2022/10/26 08:48:57;;;;;;;;;;;15.30;99.90;;;15.10;100.00;95967.88;10526906;28;1660;-72
2022/10/26 08:54:00;;;;;;;;;;;15.90;99.90;;;15.34;100.00;95973.16;10532699;28;1250;-71
2022/10/26 08:59:02;;;;;;;;;;;15.80;99.90;;;15.43;100.00;95984.09;10526030;28;1909;-70
2022/10/26 09:04:05;;;;;;;;;;;15.90;99.90;;;15.49;100.00;95985.59;10534748;28;1122;-71
2022/10/26 09:09:08;;;;;;;;;;;16.10;99.90;;;16.34;100.00;95977.94;10528210;28;1702;-71
2022/10/26 09:14:11;;;;;;;;;;;16.40;99.90;;;17.09;100.00;95980.00;10529383;28;1640;-70
2022/10/26 09:19:13;;;;;;;;;;;17.00;99.90;;;17.42;100.00;95979.72;10531666;28;1921;-72
2022/10/26 09:24:16;;;;;;;;;;;17.50;99.90;;;17.75;100.00;95970.16;10530284;28;1557;-76
2022/10/26 09:29:19;;;;;;;;;;;18.00;99.90;;;18.18;100.00;95974.91;10525581;28;1461;-74
2022/10/26 09:34:21;;;;;;;;;;;18.30;99.90;;;18.54;100.00;95984.75;10533133;28;1162;-71
2022/10/26 09:39:24;;;;;;;;;;;18.70;99.90;;;19.59;100.00;95989.78;10528164;28;1914;-72
2022/10/26 09:44:27;;;;;;;;;;;19.30;99.90;;;19.94;100.00;95979.56;10532930;28;1309;-70
2022/10/26 09:49:31;;;;;;;;;;;20.00;99.90;;;19.51;100.00;95992.53;10532337;28;1624;-73
2022/10/26 09:54:34;;;;;;;;;;;20.10;99.90;;;19.89;100.00;95996.09;10533330;28;1210;-71
2022/10/26 09:59:37;;;;;;;;;;;20.20;99.90;;;20.15;100.00;96006.09;10523744;28;1696;-76
2022/10/26 10:04:40;;;;;;;;;;;20.30;99.90;;;19.81;97.91;96012.50;10532720;28;1038;-74
2022/10/26 10:09:42;;;;;;;;;;;20.30;99.90;;;19.74;97.87;96004.84;10539936;28;1707;-72
2022/10/26 10:14:45;;;;;;;;;;;20.20;99.90;;;19.68;96.08;96009.66;10541532;28;1887;-72
2022/10/26 10:19:48;;;;;;;;;;;20.10;99.90;;;19.51;95.62;96012.41;10541212;28;1126;-71
2022/10/26 10:24:54;;;;;;;;;;;20.10;99.90;;;19.04;100.00;96025.94;10541573;28;1628;-71
2022/10/26 10:29:57;;;;;;;;;;;19.80;99.90;;;19.20;98.83;96025.44;10533323;28;1663;-75
2022/10/26 10:35:05;;;;;;;;;;;19.60;99.90;;;19.41;96.09;96032.66;10539017;28;1905;-72
2022/10/26 10:40:08;;;;;;;;;;;19.80;99.90;;;19.60;96.12;96028.78;10530601;28;1632;-71
2022/10/26 10:45:11;;;;;;;;;;;20.00;99.90;;;19.59;92.21;96032.63;10535840;28;1651;-71
2022/10/26 10:50:14;;;;;;;;;;;20.10;99.90;;;19.54;89.02;96025.41;10538043;28;1177;-72
2022/10/26 10:55:17;;;;;;;;;;;20.10;99.90;;;19.25;92.01;96028.00;10537424;28;1891;-73
2022/10/26 11:00:19;;;;;;;;;;;20.10;99.90;;;19.40;90.22;96033.78;10532109;28;1481;-71
2022/10/26 11:05:22;;;;;;;;;;;20.00;99.90;;;19.27;91.98;96040.19;10539735;28;1003;-71
2022/10/26 11:10:29;;;;;;;;;;;19.90;99.90;;;19.33;91.93;96047.06;10534564;28;1066;-71
2022/10/26 11:15:31;;;;;;;;;;;19.90;99.90;;;19.37;92.71;96042.59;10544540;28;1905;-72
2022/10/26 11:20:34;;;;;;;;;;;19.90;99.90;;;19.44;93.37;96044.81;10540938;28;1113;-70
2022/10/26 11:25:37;;;;;;;;;;;20.00;99.90;;;19.60;94.95;96045.16;10536330;28;1656;-73
2022/10/26 11:30:39;;;;;;;;;;;20.20;99.90;;;19.93;91.50;96037.97;10523168;28;1462;-72
2022/10/26 11:35:42;;;;;;;;;;;20.30;99.90;;;19.90;91.53;96037.81;10535602;28;1898;-71
2022/10/26 11:40:44;;;;;;;;;;;20.50;99.90;;;19.71;92.18;96051.84;10537182;28;1137;-76
2022/10/26 11:45:47;;;;;;;;;;;20.40;99.90;;;19.48;91.96;96053.97;10534089;28;1632;-73
2022/10/26 11:50:50;;;;;;;;;;;20.30;99.90;;;19.79;91.33;96058.41;10536041;28;1062;-71
2022/10/26 11:55:53;;;;;;;;;;;20.20;99.90;;;19.52;94.46;96059.56;10531396;28;1995;-71
2022/10/26 12:00:58;;;;;;;;;;;20.20;99.90;;;19.19;96.30;96068.25;10535330;28;1668;-71
2022/10/26 12:06:00;;;;;;;;;;;19.90;99.90;;;18.82;99.65;96075.91;10531784;28;1659;-72
2022/10/26 12:11:03;;;;;;;;;;;19.70;99.90;;;19.09;97.97;96084.94;10526388;28;1195;-71
2022/10/26 12:16:06;;;;;;;;;;;19.60;99.90;;;19.22;96.37;96085.91;10535959;28;1976;-72
2022/10/26 12:21:09;;;;;;;;;;;19.70;99.90;;;19.41;95.50;96092.63;10537975;28;1176;-71
2022/10/26 12:26:11;;;;;;;;;;;19.90;99.90;;;19.34;95.47;96100.50;10531150;28;1722;-74
2022/10/26 12:31:14;;;;;;;;;;;20.00;99.90;;;19.04;96.47;96106.88;10536920;28;1635;-70
2022/10/26 12:36:17;;;;;;;;;;;19.80;99.90;;;18.86;97.99;96111.50;10530913;28;1914;-72
2022/10/26 12:41:19;;;;;;;;;;;19.60;99.90;;;18.86;97.65;96115.03;10536379;28;1114;-72
2022/10/26 12:46:22;;;;;;;;;;;19.50;99.90;;;18.93;97.05;96105.59;10527014;28;1573;-72
2022/10/26 12:51:25;;;;;;;;;;;19.60;99.90;;;19.25;95.57;96117.94;10536719;28;1285;-71
2022/10/26 12:56:27;;;;;;;;;;;19.70;99.90;;;19.29;94.71;96116.19;10532334;28;1906;-71
2022/10/26 13:01:30;;;;;;;;;;;19.80;99.90;;;19.33;94.84;96128.84;10529158;28;1043;-71
2022/10/26 13:06:33;;;;;;;;;;;19.90;99.90;;;19.41;93.67;96117.16;10529040;28;1632;-75
2022/10/26 13:11:37;;;;;;;;;;;20.00;99.90;;;19.37;92.65;96118.09;10535938;28;1153;-75
2022/10/26 13:16:39;;;;;;;;;;;20.10;99.90;;;19.47;92.94;96115.06;10538871;28;2004;-71
2022/10/26 13:21:42;;;;;;;;;;;20.00;99.90;;;19.63;91.88;96126.31;10537808;28;1113;-71
2022/10/26 13:26:45;;;;;;;;;;;20.20;99.90;;;19.43;92.20;96128.53;10541430;28;2055;-71
2022/10/26 13:31:47;;;;;;;;;;;20.20;99.90;;;19.34;93.22;96125.03;10530728;28;1161;-72
2022/10/26 13:36:50;;;;;;;;;;;20.10;99.90;;;19.42;93.34;96131.59;10527002;28;1980;-70
2022/10/26 13:41:53;;;;;;;;;;;20.10;99.90;;;19.24;92.88;96129.97;10538867;28;1172;-73
2022/10/26 13:46:56;;;;;;;;;;;20.00;99.90;;;19.03;95.51;96137.97;10540709;28;1687;-71
2022/10/26 13:51:58;;;;;;;;;;;19.90;99.90;;;19.13;94.75;96132.22;10542811;28;1070;-73
2022/10/26 13:57:01;;;;;;;;;;;19.80;99.90;;;19.18;93.94;96138.31;10533993;28;1914;-74
2022/10/26 14:02:04;;;;;;;;;;;19.90;99.90;;;19.33;94.51;96150.66;10548067;28;1081;-75
2022/10/26 14:07:07;;;;;;;;;;;19.90;99.90;;;19.16;94.89;96150.66;10539531;28;1624;-72
2022/10/26 14:12:09;;;;;;;;;;;19.90;99.90;;;19.31;94.13;96157.56;10540950;28;1102;-72
2022/10/26 14:17:12;;;;;;;;;;;19.90;99.90;;;19.15;94.92;96154.50;10549876;28;1906;-72
2022/10/26 14:22:15;;;;;;;;;;;19.90;99.90;;;19.26;94.24;96150.31;10543674;28;1098;-71
2022/10/26 14:27:24;;;;;;;;;;;19.90;99.90;;;19.32;94.92;96157.22;10529150;28;1557;-72
2022/10/26 14:32:26;;;;;;;;;;;19.90;99.90;;;19.32;95.45;96154.50;10533267;28;1389;-70
2022/10/26 14:37:29;;;;;;;;;;;20.00;99.90;;;19.27;96.10;96154.66;10550987;28;1901;-71
2022/10/26 14:42:32;;;;;;;;;;;19.90;99.90;;;19.09;97.54;96166.69;10540602;28;893;-71
2022/10/26 14:47:34;;;;;;;;;;;19.80;99.90;;;19.07;98.71;96168.91;10533358;28;1652;-71
2022/10/26 14:52:37;;;;;;;;;;;19.80;99.90;;;18.89;100.00;96163.44;10537544;28;1489;-72
2022/10/26 14:57:39;;;;;;;;;;;19.70;99.90;;;18.83;100.00;96175.59;10532676;28;1910;-72
2022/10/26 15:02:42;;;;;;;;;;;19.60;99.90;;;18.60;100.00;96177.56;10539834;28;1177;-72
2022/10/26 15:07:45;;;;;;;;;;;19.40;99.90;;;18.49;100.00;96178.97;10534731;28;1715;-72
2022/10/26 15:12:48;;;;;;;;;;;19.30;99.90;;;18.31;100.00;96191.69;10539564;28;1328;-71
2022/10/26 15:17:51;;;;;;;;;;;19.10;99.90;;;18.09;100.00;96189.81;10534747;28;1922;-71
2022/10/26 15:22:54;;;;;;;;;;;19.00;99.90;;;17.89;100.00;96195.78;10536464;28;1731;-73
2022/10/26 15:27:57;;;;;;;;;;;18.80;99.90;;;17.87;100.00;96206.13;10534164;28;1513;-72
2022/10/26 15:32:59;;;;;;;;;;;18.80;99.90;;;17.71;100.00;96208.44;10538587;28;1137;-71
2022/10/26 15:38:02;;;;;;;;;;;18.70;99.90;;;17.60;100.00;96215.19;10535752;28;1914;-71
2022/10/26 15:43:06;;;;;;;;;;;18.50;99.90;;;17.45;100.00;96212.81;10538027;28;1133;-72
2022/10/26 15:48:08;;;;;;;;;;;18.40;99.90;;;17.46;100.00;96217.16;10537824;28;1660;-73
2022/10/26 15:53:11;;;;;;;;;;;18.30;99.90;;;17.34;100.00;96222.31;10532759;28;1525;-71
2022/10/26 15:58:14;;;;;;;;;;;18.20;99.90;;;17.28;100.00;96214.25;10530940;28;1973;-72
2022/10/26 16:03:19;;;;;;;;;;;18.20;99.90;;;17.15;100.00;96231.41;10529552;28;1674;-72
2022/10/26 16:08:22;;;;;;;;;;;18.10;99.90;;;17.06;100.00;96230.53;10537234;28;1835;-71
2022/10/26 16:13:25;;;;;;;;;;;18.00;99.90;;;17.01;100.00;96236.06;10537934;28;1169;-73
2022/10/26 16:18:28;;;;;;;;;;;17.90;99.90;;;16.98;100.00;96245.59;10534120;28;1909;-71
2022/10/26 16:23:35;;;;;;;;;;;17.80;99.90;;;16.89;100.00;96246.63;10535728;28;1648;-72
2022/10/26 16:28:38;;;;;;;;;;;17.70;99.90;;;16.75;100.00;96247.41;10526984;28;1441;-72
2022/10/26 16:33:41;;;;;;;;;;;17.60;99.90;;;16.78;100.00;96258.78;10540148;28;1164;-72
2022/10/26 16:38:43;;;;;;;;;;;17.60;99.90;;;16.56;100.00;96252.09;10538501;28;1974;-72
2022/10/26 16:43:46;;;;;;;;;;;17.50;99.90;;;16.49;100.00;96267.97;10541284;28;1126;-72
2022/10/26 16:48:49;;;;;;;;;;;17.40;99.90;;;16.57;100.00;96272.69;10541238;28;1679;-70
2022/10/26 16:53:52;;;;;;;;;;;17.30;99.90;;;16.43;100.00;96274.59;10541490;28;1258;-71
2022/10/26 16:58:55;;;;;;;;;;;17.30;99.90;;;16.40;100.00;96286.03;10539526;28;1886;-72
2022/10/26 17:03:59;;;;;;;;;;;17.20;99.90;;;16.38;100.00;96290.97;10501700;28;1200;-72
2022/10/26 17:09:03;;;;;;;;;;;17.30;99.90;;;16.36;100.00;96304.03;10534623;28;1703;-72
2022/10/26 17:14:06;;;;;;;;;;;17.20;99.90;;;16.28;100.00;96307.41;10538090;28;1588;-73
2022/10/26 17:19:09;;;;;;;;;;;17.20;99.90;;;16.31;100.00;96309.53;10542900;28;1902;-75
2022/10/26 17:24:12;;;;;;;;;;;17.20;99.90;;;16.24;100.00;96317.25;10524092;28;3000;-73
2022/10/26 17:29:15;;;;;;;;;;;17.10;99.90;;;16.21;100.00;96324.03;10531495;28;1649;-71
2022/10/26 17:34:17;;;;;;;;;;;17.10;99.90;;;16.19;100.00;96335.19;10525871;28;1591;-72
2022/10/26 17:39:20;;;;;;;;;;;17.10;99.90;;;16.22;100.00;96328.38;10524176;28;1922;-73
2022/10/26 17:44:23;;;;;;;;;;;17.00;99.90;;;16.06;100.00;96341.38;10532566;28;1505;-71
2022/10/26 17:49:26;;;;;;;;;;;17.00;99.90;;;15.88;100.00;96344.91;10533192;28;1177;-73
2022/10/26 17:54:31;;;;;;;;;;;16.90;99.90;;;15.75;100.00;96362.69;10527059;28;1521;-73
2022/10/26 17:59:34;;;;;;;;;;;16.80;99.90;;;15.62;100.00;96363.41;10526751;28;1980;-73
2022/10/26 18:04:37;;;;;;;;;;;16.70;99.90;;;15.44;100.00;96364.97;10530175;28;1133;-72
2022/10/26 18:09:39;;;;;;;;;;;16.50;99.90;;;15.26;100.00;96377.34;10525537;28;1699;-73
2022/10/26 18:14:42;;;;;;;;;;;16.40;99.90;;;15.08;100.00;96378.94;10526351;28;1549;-73
2022/10/26 18:19:45;;;;;;;;;;;16.20;99.90;;;14.92;100.00;96382.88;10526185;28;1967;-73
2022/10/26 18:24:48;;;;;;;;;;;16.10;99.90;;;14.83;100.00;96400.84;10519399;28;1390;-71
2022/10/26 18:29:51;;;;;;;;;;;15.90;99.90;;;14.76;100.00;96405.75;10515879;28;2033;-76
2022/10/26 18:34:54;;;;;;;;;;;15.90;99.90;;;14.67;100.00;96404.75;10523105;28;2038;-72
2022/10/26 18:39:57;;;;;;;;;;;15.80;99.90;;;14.49;100.00;96415.19;10517121;28;2038;-72
2022/10/26 18:45:02;;;;;;;;;;;15.70;99.90;;;14.43;100.00;96424.41;10526245;28;2036;-75
2022/10/26 18:50:04;;;;;;;;;;;15.50;99.90;;;14.38;100.00;96423.63;10522255;28;2001;-73
2022/10/26 18:55:07;;;;;;;;;;;15.40;99.90;;;14.15;100.00;96431.34;10527661;28;1997;-72
2022/10/26 19:00:10;;;;;;;;;;;15.30;99.90;;;14.13;100.00;96435.44;10527363;28;1987;-77
2022/10/26 19:05:12;;;;;;;;;;;15.20;99.90;;;14.10;100.00;96442.19;10526162;28;2144;-72
2022/10/26 19:10:15;;;;;;;;;;;15.10;99.90;;;13.92;100.00;96440.94;10513835;28;2045;-73
2022/10/26 19:15:18;;;;;;;;;;;15.00;99.90;;;13.76;100.00;96452.94;10512447;28;2085;-71
2022/10/26 19:20:21;;;;;;;;;;;14.80;99.90;;;13.56;100.00;96458.41;10520784;28;2126;-72
2022/10/26 19:25:24;;;;;;;;;;;14.80;99.90;;;13.48;100.00;96463.28;10518292;28;2015;-72
2022/10/26 19:30:27;;;;;;;;;;;14.60;99.90;;;13.38;100.00;96468.72;10515104;28;2197;-74
2022/10/26 19:35:30;;;;;;;;;;;14.50;99.90;;;13.28;100.00;96471.44;10509095;28;2163;-71
2022/10/26 19:40:33;;;;;;;;;;;14.40;99.90;;;13.21;100.00;96477.13;10510832;28;1984;-74
2022/10/26 19:45:36;;;;;;;;;;;14.30;99.90;;;13.20;100.00;96475.50;10511031;28;2057;-76
2022/10/26 19:50:38;;;;;;;;;;;14.30;99.90;;;13.11;100.00;96487.91;10515585;28;2067;-74
2022/10/26 19:55:41;;;;;;;;;;;14.20;99.90;;;13.06;100.00;96492.50;10514865;28;2065;-76
2022/10/26 20:00:44;;;;;;;;;;;14.10;99.90;;;13.02;100.00;96497.63;10526167;28;2174;-78
2022/10/26 20:05:48;;;;;;;;;;;14.10;99.90;;;12.94;100.00;96496.28;10539041;28;1926;-75
2022/10/26 20:10:51;;;;;;;;;;;14.10;99.90;;;12.89;100.00;96504.38;10540532;28;1215;-71
2022/10/26 20:15:54;;;;;;;;;;;13.90;99.90;;;12.78;100.00;96510.03;10544224;28;1485;-72
2022/10/26 20:20:56;;;;;;;;;;;13.80;99.90;;;12.71;100.00;96502.22;10543169;28;1953;-71
2022/10/26 20:26:01;;;;;;;;;;;13.80;99.90;;;12.66;100.00;96505.75;10534769;28;1648;-71
2022/10/26 20:31:04;;;;;;;;;;;13.70;99.90;;;12.58;100.00;96514.34;10529334;28;1678;-70
2022/10/26 20:36:07;;;;;;;;;;;13.70;99.90;;;12.58;100.00;96508.13;10548427;28;1553;-70
2022/10/26 20:41:10;;;;;;;;;;;13.60;99.90;;;12.49;100.00;96507.06;10537995;28;1913;-73
2022/10/26 20:46:13;;;;;;;;;;;13.50;99.90;;;12.47;100.00;96518.13;10535904;28;1680;-76
2022/10/26 20:51:15;;;;;;;;;;;13.50;99.90;;;12.33;100.00;96511.59;10535995;28;1126;-72
2022/10/26 20:56:21;;;;;;;;;;;13.40;99.90;;;12.22;100.00;96515.38;10534159;28;1679;-71
2022/10/26 21:01:23;;;;;;;;;;;13.30;99.90;;;12.18;100.00;96520.47;10534258;28;2007;-71
2022/10/26 21:06:27;;;;;;;;;;;13.20;99.90;;;12.12;100.00;96526.91;10534394;28;1493;-71
2022/10/26 21:11:29;;;;;;;;;;;13.20;99.90;;;12.18;100.00;96526.66;10536280;28;1149;-71
2022/10/26 21:16:32;;;;;;;;;;;13.20;99.90;;;12.15;100.00;96531.75;10531866;28;1710;-72
2022/10/26 21:21:35;;;;;;;;;;;13.10;99.90;;;12.11;100.00;96533.38;10535777;28;1968;-71
2022/10/26 21:26:37;;;;;;;;;;;13.10;99.90;;;12.05;100.00;96532.56;10525865;28;1616;-70
2022/10/26 21:31:40;;;;;;;;;;;13.10;99.90;;;12.04;100.00;96530.13;10529102;28;1122;-71
2022/10/26 21:36:43;;;;;;;;;;;13.10;99.90;;;12.09;100.00;96532.84;10502515;28;1513;-71
2022/10/26 21:41:46;;;;;;;;;;;13.10;99.90;;;12.00;100.00;96537.13;10534151;28;1914;-70
2022/10/26 21:46:49;;;;;;;;;;;13.10;99.90;;;11.96;100.00;96533.31;10533178;28;1695;-71
2022/10/26 21:51:51;;;;;;;;;;;13.00;99.90;;;11.92;100.00;96537.63;10534471;28;1086;-70
2022/10/26 21:56:54;;;;;;;;;;;13.00;99.90;;;11.89;100.00;96545.13;10531468;28;1581;-72
2022/10/26 22:01:57;;;;;;;;;;;12.90;99.90;;;11.78;100.00;96543.47;10536077;28;1969;-73
2022/10/26 22:07:00;;;;;;;;;;;12.90;99.90;;;11.68;100.00;96542.59;10541598;28;1746;-71
2022/10/26 22:12:03;;;;;;;;;;;12.80;99.90;;;11.62;100.00;96536.38;10543868;28;1109;-70
2022/10/26 22:17:06;;;;;;;;;;;12.70;99.90;;;11.58;100.00;96546.06;10543738;28;1707;-71
2022/10/26 22:22:11;;;;;;;;;;;12.60;99.90;;;11.54;100.00;96539.56;10546128;28;1894;-72
2022/10/26 22:27:14;;;;;;;;;;;12.50;99.90;;;11.49;100.00;96544.91;10529936;28;1640;-75
2022/10/26 22:32:17;;;;;;;;;;;12.50;99.90;;;11.53;100.00;96546.03;10542632;28;1137;-76
2022/10/26 22:37:20;;;;;;;;;;;12.60;99.90;;;11.42;100.00;96555.91;10532878;28;1557;-77
2022/10/26 22:42:23;;;;;;;;;;;12.60;99.90;;;11.36;100.00;96547.00;10541009;28;1913;-70
2022/10/26 22:47:26;;;;;;;;;;;12.30;99.90;;;11.32;100.00;96558.53;10539335;28;1636;-72
2022/10/26 22:52:28;;;;;;;;;;;12.40;99.90;;;11.39;100.00;96559.13;10505991;28;1164;-71
2022/10/26 22:57:31;;;;;;;;;;;12.40;99.90;;;11.32;100.00;96555.81;10535576;28;1696;-70
2022/10/26 23:02:34;;;;;;;;;;;12.40;99.90;;;11.29;100.00;96551.78;10542483;28;1906;-70